Time;durP1;ratioP1;P1;durP2;ratioP2;P2;SDS_P1;SDS_P2;PMS_P1;PMS_P2;Temp;Humidity;BMP_temperature;BMP_pressure;BME280_temperature;BME280_humidity;BME280_pressure;Samples;Min_cycle;Max_cycle;Signal;HPM_P1;HPM_P2
2022/01/23 00:00:28;;;;;;;1.23;0.90;;;19.40;45.90;;;;;;6192511;28;20060;-68
2022/01/23 00:03:28;;;;;;;1.73;1.20;;;19.40;45.90;;;;;;6192667;28;20109;-68
2022/01/23 00:06:29;;;;;;;1.50;1.02;;;19.40;45.90;;;;;;6191788;28;20029;-68
2022/01/23 00:09:31;;;;;;;1.48;0.85;;;19.40;46.00;;;;;;6192202;28;20039;-68
2022/01/23 00:12:37;;;;;;;1.42;1.10;;;19.40;45.80;;;;;;6191878;28;20071;-68
2022/01/23 00:18:58;;;;;;;1.70;0.90;;;19.40;45.90;;;;;;6192486;28;20034;-68
2022/01/23 00:21:59;;;;;;;1.30;0.85;;;19.40;45.90;;;;;;6191981;28;20049;-67
2022/01/23 00:31:39;;;;;;;1.27;0.73;;;19.40;46.00;;;;;;6196945;28;20038;-68
2022/01/23 00:34:40;;;;;;;1.90;1.00;;;19.40;46.00;;;;;;6196763;28;20037;-68
2022/01/23 00:37:41;;;;;;;1.00;0.70;;;19.30;45.90;;;;;;6201361;28;20038;-68
2022/01/23 00:40:44;;;;;;;1.52;0.70;;;19.40;46.00;;;;;;6196735;28;20069;-68
2022/01/23 00:43:45;;;;;;;1.00;0.60;;;19.40;46.00;;;;;;6196477;28;20080;-68
2022/01/23 00:46:50;;;;;;;1.15;0.80;;;19.40;46.00;;;;;;6196785;28;20454;-68
2022/01/23 00:49:51;;;;;;;0.85;0.70;;;19.40;46.00;;;;;;6196664;28;20108;-68
2022/01/23 00:52:51;;;;;;;1.02;0.60;;;19.40;46.00;;;;;;6195860;28;20042;-68
2022/01/23 00:55:52;;;;;;;0.90;0.70;;;19.30;45.90;;;;;;6195943;28;20034;-68
2022/01/23 00:58:53;;;;;;;0.70;0.50;;;19.30;45.90;;;;;;6196364;28;20493;-68
2022/01/23 01:01:53;;;;;;;1.00;0.70;;;19.30;45.90;;;;;;6195962;28;20026;-68
2022/01/23 01:04:54;;;;;;;1.33;0.70;;;19.30;45.90;;;;;;6195861;28;20473;-68
2022/01/23 01:07:57;;;;;;;1.20;0.60;;;19.30;46.00;;;;;;6195490;28;20122;-68
2022/01/23 01:30:12;;;;;;;0.60;0.57;;;19.30;46.10;;;;;;6196003;28;20038;-69
2022/01/23 01:31:08;;;;;;;0.85;0.55;;;19.30;46.10;;;;;;6196179;28;20046;-68
2022/01/23 01:34:15;;;;;;;0.70;0.70;;;19.30;46.10;;;;;;6194494;28;20076;-68
2022/01/23 01:37:16;;;;;;;0.80;0.60;;;19.30;46.10;;;;;;6199296;28;20049;-68
2022/01/23 01:40:17;;;;;;;0.82;0.60;;;19.30;46.10;;;;;;6195764;28;20540;-68
2022/01/23 01:43:18;;;;;;;0.85;0.60;;;19.30;46.10;;;;;;6194907;28;20379;-68
2022/01/23 01:46:19;;;;;;;0.77;0.60;;;19.30;46.10;;;;;;6195212;28;20090;-68
2022/01/23 01:49:27;;;;;;;0.60;0.50;;;19.30;46.10;;;;;;6195079;28;20030;-68
2022/01/23 01:52:28;;;;;;;0.70;0.50;;;19.30;46.20;;;;;;6189607;28;20354;-68
2022/01/23 01:55:37;;;;;;;0.80;0.60;;;19.30;46.10;;;;;;6194993;28;20489;-68
2022/01/23 02:11:24;;;;;;;0.60;0.50;;;19.30;46.20;;;;;;6194946;28;20117;-68
2022/01/23 02:50:42;;;;;;;0.40;0.38;;;19.30;46.30;;;;;;6194110;28;20214;-68
2022/01/23 02:54:07;;;;;;;0.63;0.50;;;19.30;47.00;;;;;;6191968;28;20125;-68
2022/01/23 02:57:05;;;;;;;0.32;0.32;;;19.30;46.30;;;;;;6193723;28;20037;-68
2022/01/23 03:00:14;;;;;;;0.80;0.57;;;19.30;46.30;;;;;;6193633;28;20428;-68
2022/01/23 03:03:24;;;;;;;0.40;0.38;;;19.30;46.30;;;;;;6192659;28;20049;-67
2022/01/23 03:32:13;;;;;;;0.40;0.40;;;19.30;46.30;;;;;;6193041;28;20045;-68
2022/01/23 03:35:15;;;;;;;0.40;0.35;;;19.30;46.30;;;;;;6191962;28;20084;-68
2022/01/23 03:38:15;;;;;;;0.70;0.40;;;19.30;46.40;;;;;;6197267;28;20030;-69
2022/01/23 03:41:16;;;;;;;0.65;0.40;;;19.30;46.30;;;;;;6192657;28;20034;-68
2022/01/23 03:44:17;;;;;;;0.65;0.40;;;19.30;46.30;;;;;;6191654;28;20034;-68
2022/01/23 03:47:32;;;;;;;0.50;0.30;;;19.30;46.40;;;;;;6192692;28;20022;-68
2022/01/23 03:50:33;;;;;;;0.40;0.40;;;19.20;46.30;;;;;;6192147;28;20030;-68
2022/01/23 03:53:33;;;;;;;0.20;0.20;;;19.20;46.40;;;;;;6186558;28;20040;-68
2022/01/23 03:56:34;;;;;;;0.20;0.20;;;19.20;46.30;;;;;;6192451;28;20106;-68
2022/01/23 04:03:33;;;;;;;0.40;0.40;;;19.30;46.40;;;;;;6191791;28;20027;-68
2022/01/23 04:06:34;;;;;;;0.30;0.28;;;19.20;46.30;;;;;;6191671;28;20030;-68
2022/01/23 04:09:36;;;;;;;0.43;0.40;;;19.20;46.40;;;;;;6192216;28;20053;-68
2022/01/23 04:12:56;;;;;;;0.40;0.40;;;19.20;46.40;;;;;;6191485;28;20026;-68
2022/01/23 04:16:15;;;;;;;0.63;0.30;;;19.20;46.40;;;;;;6191918;28;20774;-68
2022/01/23 04:45:40;;;;;;;0.50;0.30;;;19.20;46.40;;;;;;6165202;28;20125;-68
2022/01/23 04:59:34;;;;;;;0.52;0.40;;;19.20;46.40;;;;;;6191053;28;20053;-68
2022/01/23 05:05:34;;;;;;;0.57;0.40;;;19.20;46.40;;;;;;6162809;28;20517;-68
2022/01/23 05:08:36;;;;;;;0.20;0.20;;;19.20;46.50;;;;;;6185811;28;20034;-68
2022/01/23 05:11:43;;;;;;;0.40;0.40;;;19.20;46.40;;;;;;6191431;28;20247;-68
2022/01/23 05:14:46;;;;;;;0.40;0.30;;;19.20;46.30;;;;;;6190395;28;20426;-68
2022/01/23 05:17:48;;;;;;;0.30;0.30;;;19.20;46.40;;;;;;6195484;28;20264;-68
2022/01/23 05:20:56;;;;;;;0.40;0.40;;;19.20;46.30;;;;;;6196011;28;20045;-68
2022/01/23 05:23:57;;;;;;;0.35;0.35;;;19.20;46.40;;;;;;6194600;28;20046;-68
2022/01/23 05:27:03;;;;;;;0.32;0.32;;;19.20;46.40;;;;;;6196304;28;20409;-68
2022/01/23 05:30:05;;;;;;;0.65;0.40;;;19.30;46.60;;;;;;6196172;28;20085;-68
2022/01/23 05:33:05;;;;;;;0.30;0.30;;;19.30;46.60;;;;;;6195531;28;20370;-68
2022/01/23 05:36:06;;;;;;;0.30;0.30;;;19.20;46.50;;;;;;6194813;28;20053;-68
2022/01/23 05:39:07;;;;;;;0.30;0.30;;;19.30;46.50;;;;;;6198865;28;20045;-68
2022/01/23 05:42:09;;;;;;;0.55;0.30;;;19.30;46.50;;;;;;6195480;28;20481;-68
2022/01/23 05:45:10;;;;;;;0.38;0.30;;;19.30;46.50;;;;;;6195180;28;20098;-68
2022/01/23 05:48:11;;;;;;;0.20;0.17;;;19.30;46.60;;;;;;6195564;28;20509;-67
2022/01/23 05:51:12;;;;;;;0.30;0.30;;;19.30;46.60;;;;;;6195468;28;20045;-68
2022/01/23 05:54:12;;;;;;;0.30;0.20;;;19.30;46.60;;;;;;6188862;28;20026;-68
2022/01/23 05:57:13;;;;;;;0.25;0.25;;;19.30;46.60;;;;;;6194937;28;20706;-68
2022/01/23 06:00:14;;;;;;;0.28;0.20;;;19.30;46.60;;;;;;6195607;28;20485;-68
2022/01/23 06:03:14;;;;;;;0.20;0.20;;;19.30;46.60;;;;;;6188847;28;20034;-68
2022/01/23 06:06:15;;;;;;;0.20;0.20;;;19.30;46.60;;;;;;6194312;28;20049;-68
2022/01/23 06:09:18;;;;;;;0.20;0.20;;;19.30;46.60;;;;;;6194475;28;20050;-68
2022/01/23 06:12:19;;;;;;;0.35;0.30;;;19.30;46.60;;;;;;6194500;28;20034;-68
2022/01/23 06:15:20;;;;;;;0.28;0.28;;;19.30;46.60;;;;;;6193934;28;20065;-67
2022/01/23 06:18:20;;;;;;;0.22;0.22;;;19.30;46.60;;;;;;6195048;28;20022;-68
2022/01/23 06:21:22;;;;;;;0.20;0.20;;;19.30;46.60;;;;;;6194182;28;20621;-68
2022/01/23 06:24:28;;;;;;;0.30;0.30;;;19.30;46.60;;;;;;6192567;28;20037;-68
2022/01/23 06:27:28;;;;;;;0.52;0.32;;;19.30;46.60;;;;;;6193958;28;20040;-68
2022/01/23 06:30:29;;;;;;;0.25;0.25;;;19.30;46.60;;;;;;6194497;28;20045;-68
2022/01/23 06:33:30;;;;;;;0.50;0.30;;;19.30;46.60;;;;;;6193986;28;20066;-68
2022/01/23 06:36:31;;;;;;;0.10;0.10;;;19.30;46.60;;;;;;6194047;28;20027;-68
2022/01/23 06:39:31;;;;;;;0.20;0.20;;;19.30;46.70;;;;;;6198230;28;20061;-68
2022/01/23 06:42:32;;;;;;;0.45;0.20;;;19.30;46.70;;;;;;6194279;28;20022;-68
2022/01/23 06:45:32;;;;;;;0.25;0.25;;;19.30;46.60;;;;;;6193417;28;20496;-68
2022/01/23 06:48:33;;;;;;;0.50;0.30;;;19.30;46.70;;;;;;6193860;28;20034;-68
2022/01/23 06:51:33;;;;;;;0.10;0.10;;;19.30;46.70;;;;;;6192525;28;20034;-68
2022/01/23 06:54:34;;;;;;;0.30;0.30;;;19.30;46.70;;;;;;6188036;28;20117;-67
2022/01/23 06:57:35;;;;;;;0.40;0.40;;;19.30;46.70;;;;;;6193579;28;20057;-68
2022/01/23 07:00:36;;;;;;;0.28;0.28;;;19.30;46.70;;;;;;6193848;28;20037;-68
2022/01/23 07:03:37;;;;;;;0.20;0.20;;;19.30;46.70;;;;;;6192526;28;20038;-68
2022/01/23 07:06:38;;;;;;;0.20;0.20;;;19.30;46.70;;;;;;6190777;28;20081;-68
2022/01/23 07:09:38;;;;;;;0.30;0.28;;;19.30;46.70;;;;;;6193463;28;20081;-68
2022/01/23 07:12:39;;;;;;;0.20;0.20;;;19.30;46.70;;;;;;6192944;28;20030;-68
2022/01/23 07:15:39;;;;;;;0.20;0.20;;;19.30;46.70;;;;;;6193032;28;20090;-68
2022/01/23 07:18:40;;;;;;;0.30;0.30;;;19.30;46.80;;;;;;6192860;28;20045;-68
2022/01/23 07:21:40;;;;;;;0.40;0.30;;;19.30;46.80;;;;;;6193220;28;20118;-67
2022/01/23 07:24:41;;;;;;;0.20;0.20;;;19.30;46.80;;;;;;6191551;28;20038;-68
2022/01/23 07:27:54;;;;;;;0.50;0.20;;;19.30;46.70;;;;;;6192657;28;20026;-67
2022/01/23 07:30:59;;;;;;;0.35;0.20;;;19.30;46.80;;;;;;6193030;28;20053;-68
2022/01/23 07:34:04;;;;;;;0.30;0.30;;;19.30;46.80;;;;;;6191977;28;20030;-68
2022/01/23 07:37:05;;;;;;;0.20;0.20;;;19.30;46.80;;;;;;6194811;28;20084;-68
2022/01/23 07:40:06;;;;;;;0.22;0.20;;;19.30;46.80;;;;;;6192962;28;20022;-69
2022/01/23 07:43:06;;;;;;;0.20;0.20;;;19.30;46.80;;;;;;6191951;28;20064;-68
2022/01/23 07:46:07;;;;;;;0.50;0.28;;;19.30;46.80;;;;;;6192439;28;20367;-68
2022/01/23 07:49:07;;;;;;;0.38;0.20;;;19.30;46.80;;;;;;6192743;28;20026;-68
2022/01/23 07:52:08;;;;;;;0.20;0.20;;;19.30;46.80;;;;;;6188619;28;20023;-68
2022/01/23 07:55:14;;;;;;;0.52;0.30;;;19.30;46.80;;;;;;6190595;28;20029;-68
2022/01/23 07:58:15;;;;;;;0.20;0.20;;;19.30;46.80;;;;;;6192593;28;20027;-68
2022/01/23 08:01:15;;;;;;;0.22;0.20;;;19.30;46.80;;;;;;6186408;28;20106;-68
2022/01/23 08:04:16;;;;;;;0.20;0.20;;;19.30;46.80;;;;;;6191015;28;20030;-68
2022/01/23 08:07:31;;;;;;;0.10;0.10;;;19.30;46.80;;;;;;6192490;28;20022;-68
2022/01/23 08:10:32;;;;;;;0.65;0.30;;;19.30;46.80;;;;;;6191628;28;20054;-68
2022/01/23 08:13:33;;;;;;;0.10;0.10;;;19.30;46.80;;;;;;6191659;28;20030;-68
2022/01/23 08:16:35;;;;;;;0.22;0.20;;;19.30;46.80;;;;;;6191885;28;20120;-68
2022/01/23 08:19:35;;;;;;;0.20;0.20;;;19.30;46.80;;;;;;6193226;28;20484;-68
2022/01/23 08:22:36;;;;;;;0.10;0.10;;;19.30;46.80;;;;;;6191097;28;20062;-68
2022/01/23 08:25:36;;;;;;;0.25;0.20;;;19.30;46.80;;;;;;6191582;28;20069;-68
2022/01/23 08:28:37;;;;;;;0.15;0.13;;;19.30;46.80;;;;;;6192124;28;20034;-68
2022/01/23 08:31:38;;;;;;;0.20;0.20;;;19.30;46.80;;;;;;6191986;28;20366;-68
2022/01/23 08:34:39;;;;;;;0.20;0.20;;;19.30;46.80;;;;;;6190995;28;20141;-69
2022/01/23 08:37:39;;;;;;;0.20;0.20;;;19.30;46.90;;;;;;6196304;28;20027;-68
2022/01/23 08:43:44;;;;;;;0.28;0.20;;;19.30;46.80;;;;;;6191350;28;20057;-68
2022/01/23 08:46:45;;;;;;;0.15;0.15;;;19.30;46.80;;;;;;6189734;28;20030;-68
2022/01/23 08:49:48;;;;;;;0.28;0.20;;;19.30;46.90;;;;;;6192416;28;20069;-68
2022/01/23 08:52:49;;;;;;;0.10;0.10;;;19.30;46.90;;;;;;6190631;28;20601;-68
2022/01/23 08:55:49;;;;;;;0.17;0.17;;;19.30;46.80;;;;;;6196140;28;20034;-67
2022/01/23 08:58:50;;;;;;;0.10;0.10;;;19.30;46.80;;;;;;6196900;28;20038;-68
2022/01/23 09:01:50;;;;;;;0.13;0.13;;;19.30;46.80;;;;;;6196648;28;20033;-68
2022/01/23 09:04:51;;;;;;;0.25;0.20;;;19.30;46.90;;;;;;6195238;28;20109;-68
2022/01/23 09:07:52;;;;;;;0.10;0.10;;;19.30;46.90;;;;;;6196030;28;20042;-68
2022/01/23 09:10:55;;;;;;;0.20;0.20;;;19.30;46.90;;;;;;6196193;28;20531;-68
2022/01/23 09:17:05;;;;;;;0.10;0.10;;;19.30;46.90;;;;;;6196014;28;20036;-68
2022/01/23 09:20:06;;;;;;;0.10;0.10;;;19.30;46.90;;;;;;6196490;28;20022;-68
2022/01/23 09:23:07;;;;;;;0.20;0.10;;;19.30;46.90;;;;;;6195414;28;20523;-68
2022/01/23 09:26:09;;;;;;;0.20;0.20;;;19.30;46.90;;;;;;6195337;28;20068;-68
2022/01/23 09:29:15;;;;;;;0.20;0.20;;;19.30;47.00;;;;;;6196016;28;20030;-68
2022/01/23 09:32:18;;;;;;;0.22;0.20;;;19.30;47.00;;;;;;6195122;28;20132;-68
2022/01/23 09:35:18;;;;;;;0.25;0.25;;;19.30;47.00;;;;;;6195145;28;20033;-68
2022/01/23 09:38:19;;;;;;;0.20;0.20;;;19.30;47.00;;;;;;6200002;28;20030;-68
2022/01/23 09:41:23;;;;;;;0.20;0.20;;;19.30;47.00;;;;;;6194584;28;20026;-68
2022/01/23 09:44:25;;;;;;;0.05;0.05;;;19.40;47.10;;;;;;6194253;28;20021;-68
2022/01/23 09:47:27;;;;;;;0.25;0.15;;;19.30;47.00;;;;;;6195190;28;20035;-68
2022/01/23 09:50:29;;;;;;;0.13;0.13;;;19.30;47.00;;;;;;6195464;28;20038;-68
2022/01/23 09:53:30;;;;;;;0.10;0.10;;;19.30;47.10;;;;;;6194474;28;20275;-68
2022/01/23 09:56:34;;;;;;;0.20;0.20;;;19.30;47.10;;;;;;6194883;28;20041;-67
2022/01/23 09:59:34;;;;;;;0.28;0.22;;;19.40;47.20;;;;;;6195198;28;20036;-68
2022/01/23 10:02:35;;;;;;;0.10;0.10;;;19.30;47.10;;;;;;6194584;28;20027;-68
2022/01/23 10:05:37;;;;;;;0.17;0.17;;;19.40;47.20;;;;;;6194041;28;20073;-68
2022/01/23 10:08:38;;;;;;;0.10;0.10;;;19.40;47.20;;;;;;6194909;28;20041;-68
2022/01/23 10:11:42;;;;;;;0.10;0.10;;;19.30;47.10;;;;;;6194424;28;20513;-68
2022/01/23 10:14:42;;;;;;;0.20;0.20;;;19.40;47.20;;;;;;6194250;28;20042;-68
2022/01/23 10:17:43;;;;;;;0.10;0.10;;;19.30;47.20;;;;;;6195047;28;20030;-68
2022/01/23 10:20:46;;;;;;;0.20;0.20;;;19.40;47.30;;;;;;6195111;28;20023;-68
2022/01/23 10:23:47;;;;;;;0.10;0.10;;;19.40;47.30;;;;;;6193202;28;20114;-68
2022/01/23 10:26:54;;;;;;;0.20;0.20;;;19.40;47.20;;;;;;6194504;28;20416;-68
2022/01/23 10:29:55;;;;;;;0.20;0.20;;;19.40;47.30;;;;;;6194798;28;20038;-68
2022/01/23 10:33:04;;;;;;;0.30;0.20;;;19.40;47.50;;;;;;6194003;28;20042;-70
2022/01/23 10:36:17;;;;;;;0.28;0.17;;;19.40;47.70;;;;;;6193649;28;20093;-73
2022/01/23 10:39:19;;;;;;;0.10;0.10;;;19.40;47.50;;;;;;6198824;28;20469;-70
2022/01/23 10:42:50;;;;;;;2.85;0.20;;;19.50;47.40;;;;;;6193963;28;20022;-69
2022/01/23 10:49:08;;;;;;;3.03;0.40;;;19.60;47.20;;;;;;6193596;28;20436;-70
2022/01/23 10:52:24;;;;;;;0.70;0.20;;;19.60;47.00;;;;;;6190256;28;20030;-72
2022/01/23 10:55:32;;;;;;;0.80;0.20;;;19.70;46.80;;;;;;6193530;28;20053;-69
2022/01/23 10:58:33;;;;;;;0.60;0.25;;;19.70;46.80;;;;;;6194008;28;20032;-70
2022/01/23 11:01:34;;;;;;;1.40;0.32;;;19.70;47.30;;;;;;6194043;28;20030;-69
2022/01/23 11:04:50;;;;;;;2.78;0.65;;;19.70;47.50;;;;;;6191514;28;20030;-70
2022/01/23 11:07:50;;;;;;;5.03;0.40;;;19.70;47.50;;;;;;6196367;28;20023;-69
2022/01/23 11:11:03;;;;;;;0.80;0.30;;;19.70;47.50;;;;;;6193487;28;20109;-69
2022/01/23 11:17:47;;;;;;;0.40;0.30;;;19.60;47.50;;;;;;6193914;28;20488;-68
2022/01/23 11:20:49;;;;;;;0.80;0.40;;;19.60;47.50;;;;;;6189026;28;20076;-68
2022/01/23 11:23:57;;;;;;;1.20;0.30;;;19.60;47.60;;;;;;6193969;28;20227;-69
2022/01/23 11:27:02;;;;;;;0.50;0.30;;;19.60;47.50;;;;;;6192082;28;20570;-69
2022/01/23 11:30:13;;;;;;;;;;;19.60;47.60;;;;;;6186025;28;20080;-69
2022/01/23 11:33:17;;;;;;;0.65;0.38;;;19.60;47.60;;;;;;6192198;28;19906;-70
2022/01/23 11:36:19;;;;;;;0.38;0.30;;;19.60;47.60;;;;;;6192214;28;20030;-69
2022/01/23 11:39:35;;;;;;;2.20;0.40;;;19.60;47.60;;;;;;6206507;28;20541;-68
2022/01/23 11:56:25;;;;;;;0.88;0.30;;;19.60;47.60;;;;;;6192154;28;20022;-70
2022/01/23 11:59:33;;;;;;;0.25;0.20;;;19.60;47.60;;;;;;6192541;28;20041;-69
2022/01/23 12:02:39;;;;;;;2.25;0.40;;;19.60;47.60;;;;;;6192659;28;20031;-69
2022/01/23 12:05:45;;;;;;;0.20;0.20;;;19.60;47.60;;;;;;6189705;28;20520;-69
2022/01/23 12:08:46;;;;;;;0.77;0.30;;;19.60;47.70;;;;;;6191959;28;20115;-69
2022/01/23 12:12:09;;;;;;;0.95;0.30;;;19.60;47.60;;;;;;6191746;28;20054;-68
2022/01/23 12:18:41;;;;;;;0.40;0.40;;;19.60;47.60;;;;;;6192416;28;20034;-69
2022/01/23 12:21:42;;;;;;;0.20;0.20;;;19.60;47.60;;;;;;6192346;28;20510;-69
2022/01/23 12:24:48;;;;;;;0.95;0.20;;;19.60;47.60;;;;;;6190724;28;20119;-71
2022/01/23 12:28:32;;;;;;;0.82;0.20;;;19.60;47.70;;;;;;6195682;28;20531;-70
2022/01/23 12:31:33;;;;;;;0.50;0.22;;;19.60;47.70;;;;;;6198888;28;20077;-71
2022/01/23 12:34:50;;;;;;;0.43;0.20;;;19.70;47.50;;;;;;6196117;28;20424;-71
2022/01/23 12:37:59;;;;;;;1.85;0.40;;;19.70;47.40;;;;;;6206964;28;20026;-69
2022/01/23 12:41:30;;;;;;;0.47;0.25;;;19.70;47.50;;;;;;6206784;28;20121;-70
2022/01/23 12:44:37;;;;;;;1.17;0.13;;;19.70;47.40;;;;;;6171570;28;20050;-71
2022/01/23 12:47:37;;;;;;;1.55;0.38;;;19.70;47.50;;;;;;6173532;28;20413;-70
2022/01/23 12:50:45;;;;;;;7.45;0.30;;;19.80;47.60;;;;;;6178250;28;20070;-70
2022/01/23 12:53:46;;;;;;;0.70;0.20;;;19.80;47.40;;;;;;6195409;28;20027;-70
2022/01/23 12:56:48;;;;;;;1.38;0.40;;;19.80;47.30;;;;;;6197672;28;20031;-70
2022/01/23 12:59:53;;;;;;;1.42;0.30;;;19.80;47.30;;;;;;6197390;28;20521;-70
2022/01/23 13:02:56;;;;;;;0.85;0.40;;;19.80;47.20;;;;;;6196830;28;20076;-71
2022/01/23 13:05:57;;;;;;;0.88;0.47;;;19.80;47.30;;;;;;6193996;28;20030;-70
2022/01/23 13:09:29;;;;;;;3.35;0.30;;;19.80;47.40;;;;;;6197224;28;20037;-67
2022/01/23 13:16:00;;;;;;;4.70;0.47;;;19.80;48.00;;;;;;6196479;28;20389;-69
2022/01/23 13:32:45;;;;;;;0.68;0.30;;;19.90;47.00;;;;;;6196214;28;20050;-70
2022/01/23 13:35:50;;;;;;;;;;;19.80;46.40;;;;;;6195757;28;20105;-71
2022/01/23 13:38:55;;;;;;;0.77;0.43;;;19.80;46.30;;;;;;6214019;28;19906;-69
2022/01/23 13:42:46;;;;;;;0.40;0.30;;;19.80;46.60;;;;;;6221131;28;20034;-70
2022/01/23 13:52:43;;;;;;;0.52;0.30;;;19.80;46.70;;;;;;6210145;28;20426;-69
2022/01/23 13:59:06;;;;;;;0.80;0.35;;;19.90;46.80;;;;;;6171384;28;20027;-70
2022/01/23 14:02:16;;;;;;;0.50;0.30;;;19.90;46.70;;;;;;6171573;28;20505;-70
2022/01/23 14:05:36;;;;;;;2.05;0.60;;;19.90;47.30;;;;;;6184230;28;20043;-70
2022/01/23 14:08:36;;;;;;;3.20;0.47;;;19.90;46.80;;;;;;6194457;28;20026;-70
2022/01/23 14:11:37;;;;;;;5.72;0.50;;;19.90;46.90;;;;;;6195746;28;20235;-70
2022/01/23 14:14:54;;;;;;;2.45;0.50;;;19.90;46.90;;;;;;6195680;28;20030;-70
2022/01/23 14:18:05;;;;;;;4.35;0.47;;;19.90;46.60;;;;;;6195500;28;20430;-70
2022/01/23 14:21:09;;;;;;;1.63;0.40;;;19.90;46.60;;;;;;6194593;28;20030;-69
2022/01/23 14:24:10;;;;;;;0.50;0.37;;;19.90;46.60;;;;;;6193675;28;20030;-70
2022/01/23 14:27:13;;;;;;;0.77;0.45;;;19.90;46.50;;;;;;6195182;28;20034;-70
2022/01/23 14:30:20;;;;;;;2.05;0.50;;;19.90;46.50;;;;;;6196166;28;20054;-69
2022/01/23 14:33:27;;;;;;;3.20;0.50;;;19.90;46.40;;;;;;6192407;28;20034;-69
2022/01/23 14:36:31;;;;;;;0.88;0.40;;;19.90;46.60;;;;;;6194452;28;20460;-69
2022/01/23 14:39:31;;;;;;;1.63;0.45;;;19.90;46.50;;;;;;6217013;28;20026;-69
2022/01/23 14:42:32;;;;;;;1.08;0.40;;;19.90;46.40;;;;;;6218843;28;20034;-70
2022/01/23 14:45:42;;;;;;;0.98;0.32;;;19.80;46.40;;;;;;6218253;28;20392;-70
2022/01/23 14:48:46;;;;;;;1.00;0.40;;;19.90;46.40;;;;;;6218338;28;20030;-70
2022/01/23 14:51:47;;;;;;;3.80;0.50;;;19.90;46.50;;;;;;6218018;28;20389;-70
2022/01/23 14:54:49;;;;;;;1.73;0.40;;;19.90;46.50;;;;;;6169512;28;20066;-70
2022/01/23 14:57:55;;;;;;;3.70;0.50;;;19.80;46.30;;;;;;6170894;28;20405;-70
2022/01/23 15:00:56;;;;;;;2.03;0.40;;;19.90;46.40;;;;;;6170767;28;20622;-69
2022/01/23 15:03:57;;;;;;;1.67;0.22;;;19.80;46.50;;;;;;6171607;28;20026;-69
2022/01/23 15:07:00;;;;;;;1.10;0.50;;;19.90;46.50;;;;;;6194099;28;20034;-69
2022/01/23 15:10:01;;;;;;;5.10;0.50;;;19.90;46.70;;;;;;6193972;28;20039;-70
2022/01/23 15:13:01;;;;;;;0.90;0.50;;;19.90;46.80;;;;;;6193885;28;20552;-70
2022/01/23 15:16:02;;;;;;;2.80;0.57;;;19.90;46.70;;;;;;6194218;28;20082;-70
2022/01/23 15:19:04;;;;;;;0.75;0.47;;;19.90;46.60;;;;;;6194322;28;20431;-69
2022/01/23 15:22:05;;;;;;;1.00;0.57;;;19.90;46.60;;;;;;6192802;28;20083;-70
2022/01/23 15:25:08;;;;;;;2.05;0.50;;;19.90;46.60;;;;;;6192384;28;20023;-70
2022/01/23 15:28:09;;;;;;;1.55;0.47;;;19.80;46.50;;;;;;6194009;28;20436;-69
2022/01/23 15:31:10;;;;;;;1.83;0.50;;;19.80;46.60;;;;;;6194060;28;20185;-69
2022/01/23 15:34:10;;;;;;;1.55;0.40;;;19.80;46.60;;;;;;6192376;28;20034;-70
2022/01/23 15:37:13;;;;;;;1.17;0.45;;;19.80;46.70;;;;;;6197402;28;20124;-70
2022/01/23 15:40:15;;;;;;;0.88;0.50;;;19.80;46.70;;;;;;6218372;28;20026;-70
2022/01/23 15:43:16;;;;;;;0.73;0.40;;;19.80;46.70;;;;;;6217734;28;20049;-70
2022/01/23 15:46:17;;;;;;;0.60;0.35;;;19.80;46.70;;;;;;6217688;28;20029;-69
2022/01/23 15:49:18;;;;;;;1.65;0.55;;;19.80;46.70;;;;;;6217935;28;20494;-70
2022/01/23 15:52:18;;;;;;;1.23;0.50;;;19.80;46.70;;;;;;6208099;28;20026;-70
2022/01/23 15:55:20;;;;;;;0.57;0.40;;;19.80;46.70;;;;;;6169028;28;20034;-69
2022/01/23 15:58:20;;;;;;;0.40;0.30;;;19.80;47.00;;;;;;6169584;28;20521;-69
2022/01/23 16:01:22;;;;;;;0.90;0.40;;;19.80;46.70;;;;;;6169174;28;20238;-69
2022/01/23 16:04:23;;;;;;;0.40;0.40;;;19.80;46.80;;;;;;6173029;28;20034;-70
2022/01/23 16:07:24;;;;;;;0.88;0.32;;;19.70;46.70;;;;;;6208069;28;20036;-69
2022/01/23 16:10:25;;;;;;;0.60;0.40;;;19.80;46.80;;;;;;6192568;28;20540;-70
2022/01/23 16:13:27;;;;;;;1.05;0.50;;;19.80;46.80;;;;;;6192986;28;20029;-70
2022/01/23 16:16:27;;;;;;;1.55;0.40;;;19.80;46.80;;;;;;6192795;28;20026;-69
2022/01/23 16:19:28;;;;;;;0.70;0.40;;;19.80;46.80;;;;;;6193508;28;20130;-69
2022/01/23 16:22:28;;;;;;;0.45;0.30;;;19.70;46.70;;;;;;6192423;28;20303;-68
2022/01/23 16:25:29;;;;;;;0.85;0.40;;;19.80;46.80;;;;;;6192699;28;20030;-69
2022/01/23 16:28:30;;;;;;;0.70;0.45;;;19.80;46.80;;;;;;6193448;28;20022;-69
2022/01/23 16:31:31;;;;;;;0.90;0.50;;;19.80;46.80;;;;;;6193245;28;20042;-69
2022/01/23 16:34:32;;;;;;;0.82;0.50;;;19.80;46.80;;;;;;6191152;28;20026;-69
2022/01/23 16:37:33;;;;;;;1.00;0.40;;;19.80;46.80;;;;;;6199285;28;20033;-69
2022/01/23 16:40:33;;;;;;;0.73;0.40;;;19.80;46.80;;;;;;6216946;28;20030;-69
2022/01/23 16:43:34;;;;;;;1.35;0.50;;;19.80;46.90;;;;;;6215068;28;20160;-70
2022/01/23 16:46:41;;;;;;;1.02;0.50;;;19.80;46.90;;;;;;6217106;28;20342;-69
2022/01/23 16:49:42;;;;;;;1.58;0.40;;;19.80;46.80;;;;;;6217118;28;20030;-71
2022/01/23 16:52:42;;;;;;;1.45;0.65;;;19.80;46.80;;;;;;6199482;28;20037;-70
2022/01/23 16:55:43;;;;;;;1.35;0.45;;;19.80;47.00;;;;;;6168607;28;20022;-72
2022/01/23 16:58:45;;;;;;;2.08;0.57;;;19.80;46.90;;;;;;6168592;28;20039;-70
2022/01/23 17:01:46;;;;;;;6.90;0.55;;;19.90;47.30;;;;;;6168764;28;20019;-70
2022/01/23 17:04:47;;;;;;;8.30;0.60;;;19.90;47.20;;;;;;6176921;28;20092;-70
2022/01/23 17:07:48;;;;;;;18.73;1.30;;;19.90;47.20;;;;;;6191777;28;20018;-70
2022/01/23 17:10:50;;;;;;;29.52;1.40;;;19.90;47.40;;;;;;6189442;28;20125;-70
2022/01/23 17:13:51;;;;;;;21.63;1.88;;;19.90;47.20;;;;;;6188875;28;20030;-70
2022/01/23 17:16:51;;;;;;;12.90;1.13;;;19.90;46.80;;;;;;6200989;28;20440;-70
2022/01/23 17:19:52;;;;;;;6.75;0.75;;;19.90;46.90;;;;;;6207478;28;20024;-72
2022/01/23 17:22:53;;;;;;;13.57;0.90;;;19.90;46.80;;;;;;6195548;28;20030;-70
2022/01/23 17:25:53;;;;;;;5.20;0.60;;;20.00;47.10;;;;;;6196694;28;20038;-70
2022/01/23 17:28:54;;;;;;;4.50;0.73;;;20.00;47.10;;;;;;6196151;28;20022;-71
2022/01/23 17:31:54;;;;;;;5.10;0.70;;;20.00;47.00;;;;;;6196494;28;20129;-70
2022/01/23 17:34:55;;;;;;;5.13;0.45;;;20.00;47.00;;;;;;6211034;28;20037;-70
2022/01/23 17:37:56;;;;;;;3.47;0.77;;;20.00;47.10;;;;;;6206098;28;20026;-70
2022/01/23 17:40:57;;;;;;;7.43;0.80;;;20.00;47.10;;;;;;6221561;28;20025;-69
2022/01/23 17:43:58;;;;;;;4.18;0.63;;;20.00;47.00;;;;;;6219951;28;20022;-69
2022/01/23 17:47:09;;;;;;;1.88;0.45;;;20.00;47.00;;;;;;6221326;28;20022;-70
2022/01/23 17:50:18;;;;;;;1.88;0.52;;;20.00;47.60;;;;;;6221086;28;20392;-69
2022/01/23 17:53:19;;;;;;;3.03;0.93;;;20.00;47.00;;;;;;6193727;28;20026;-69
2022/01/23 17:56:20;;;;;;;5.82;0.47;;;20.00;47.00;;;;;;6171944;28;20086;-70
2022/01/23 17:59:21;;;;;;;1.83;0.60;;;20.00;47.00;;;;;;6172592;28;20065;-69
2022/01/23 18:02:21;;;;;;;3.15;0.70;;;20.00;47.10;;;;;;6188546;28;20038;-69
2022/01/23 18:05:23;;;;;;;1.33;0.60;;;20.00;47.20;;;;;;6196285;28;20035;-69
2022/01/23 18:08:23;;;;;;;5.38;0.70;;;20.10;47.30;;;;;;6197191;28;20531;-69
2022/01/23 18:11:24;;;;;;;1.95;0.60;;;20.00;47.20;;;;;;6197097;28;20054;-69
2022/01/23 18:14:24;;;;;;;3.75;0.88;;;20.00;47.20;;;;;;6197722;28;20396;-69
2022/01/23 18:17:25;;;;;;;2.53;0.52;;;20.00;47.00;;;;;;6197262;28;20478;-70
2022/01/23 18:20:25;;;;;;;1.60;0.35;;;20.00;47.10;;;;;;6196783;28;20382;-69
2022/01/23 18:23:26;;;;;;;2.50;0.60;;;20.00;47.00;;;;;;6196298;28;20030;-69
2022/01/23 18:26:26;;;;;;;3.53;0.68;;;20.00;47.00;;;;;;6196488;28;20022;-69
2022/01/23 18:29:28;;;;;;;2.85;0.63;;;20.00;47.00;;;;;;6196775;28;20397;-70
2022/01/23 18:32:28;;;;;;;1.20;0.35;;;20.00;47.10;;;;;;6196460;28;20034;-69
2022/01/23 18:35:29;;;;;;;0.85;0.40;;;20.00;46.90;;;;;;6197068;28;20505;-70
2022/01/23 18:38:29;;;;;;;1.13;0.30;;;20.00;47.00;;;;;;6196413;28;20025;-70
2022/01/23 18:41:31;;;;;;;0.88;0.40;;;20.00;47.00;;;;;;6196547;28;20054;-70
2022/01/23 18:44:32;;;;;;;2.65;0.60;;;20.00;47.00;;;;;;6196347;28;20041;-70
2022/01/23 18:47:32;;;;;;;1.17;0.45;;;19.90;46.90;;;;;;6196454;28;20417;-68
2022/01/23 18:50:34;;;;;;;0.30;0.30;;;20.00;47.00;;;;;;6196487;28;20066;-70
2022/01/23 18:53:42;;;;;;;1.85;0.40;;;20.00;47.00;;;;;;6196176;28;20026;-69
2022/01/23 18:56:56;;;;;;;0.43;0.30;;;20.00;47.00;;;;;;6195667;28;20029;-70
2022/01/23 19:00:08;;;;;;;3.65;0.40;;;20.00;47.60;;;;;;6195910;28;20347;-69
2022/01/23 19:03:34;;;;;;;1.08;0.47;;;20.00;47.00;;;;;;6196539;28;20031;-69
2022/01/23 19:09:33;;;;;;;0.98;0.50;;;20.00;47.00;;;;;;6195722;28;20061;-69
2022/01/23 19:12:37;;;;;;;1.13;0.40;;;20.00;47.00;;;;;;6195840;28;20473;-69
2022/01/23 19:15:38;;;;;;;0.50;0.32;;;20.00;47.00;;;;;;6195599;28;20022;-70
2022/01/23 19:18:39;;;;;;;0.65;0.30;;;20.00;47.00;;;;;;6196086;28;20045;-68
2022/01/23 19:21:40;;;;;;;0.60;0.30;;;20.00;47.00;;;;;;6195509;28;20030;-69